Vihari Weather



Vihari's Current Weather

Temprature 22.09o clear sky

clear sky

Rain: 0 %

Min Temprature22.09o
Max Temprature22.09o
Humidity33
Wind Speed2.29 m/h
Sun Rise05:50:10
Sun Set18:33:40
Current Time: 09-Apr-2020 03:04:46
Lat/Lon: 30.03, 72.35




Vihari's Geo Location



Vihari's Weather Forecast

Time Overall Temp Min Temp Max Temp Humidity Wind Speed Rain
09-Apr-2020 (Thu)
05:00:00 clear sky 21.000 21.000 21.000 34 2.33 m/h 0 %
08:00:00 few clouds 26.230 26.230 26.230 25 2.26 m/h 0 %
11:00:00 broken clouds 33.160 33.160 33.160 16 3.66 m/h 0 %
14:00:00 overcast clouds 35.750 35.750 35.750 13 4.25 m/h 0 %
17:00:00 overcast clouds 35.140 35.140 35.140 13 1.81 m/h 0 %
20:00:00 overcast clouds 28.640 28.640 28.640 20 2.06 m/h 0 %
23:00:00 overcast clouds 27.130 27.130 27.130 22 2.19 m/h 0 %
10-Apr-2020 (Fri)
02:00:00 scattered clouds 25.340 25.340 25.340 24 2.99 m/h 0 %
05:00:00 few clouds 22.490 22.490 22.490 33 3.44 m/h 0 %
08:00:00 clear sky 26.740 26.740 26.740 27 2.8 m/h 0 %
11:00:00 clear sky 33.400 33.400 33.400 17 3.78 m/h 0 %
14:00:00 clear sky 36.400 36.400 36.400 15 4.3 m/h 0 %
17:00:00 few clouds 35.280 35.280 35.280 16 4.85 m/h 0 %
20:00:00 clear sky 28.060 28.060 28.060 28 3.7 m/h 0 %
23:00:00 clear sky 25.540 25.540 25.540 33 3.36 m/h 0 %
11-Apr-2020 (Sat)
02:00:00 scattered clouds 24.100 24.100 24.100 38 3.44 m/h 0 %
05:00:00 broken clouds 23.380 23.380 23.380 41 3.73 m/h 0 %
08:00:00 broken clouds 28.020 28.020 28.020 32 4.16 m/h 0 %
11:00:00 scattered clouds 35.120 35.120 35.120 18 3.16 m/h 0 %
14:00:00 clear sky 38.010 38.010 38.010 13 3.16 m/h 0 %
17:00:00 few clouds 37.460 37.460 37.460 13 4.12 m/h 0 %
20:00:00 overcast clouds 30.510 30.510 30.510 20 3.51 m/h 0 %
23:00:00 overcast clouds 28.690 28.690 28.690 21 2.29 m/h 0 %
12-Apr-2020 (Sun)
02:00:00 few clouds 26.760 26.760 26.760 23 2.48 m/h 0 %
05:00:00 scattered clouds 25.180 25.180 25.180 25 1.41 m/h 0 %
08:00:00 overcast clouds 29.780 29.780 29.780 21 1.48 m/h 0 %
11:00:00 overcast clouds 36.900 36.900 36.900 14 1.59 m/h 0 %
14:00:00 overcast clouds 39.890 39.890 39.890 11 5.1 m/h 0 %
17:00:00 broken clouds 38.860 38.860 38.860 11 5.94 m/h 0 %
20:00:00 clear sky 31.610 31.610 31.610 19 2.48 m/h 0 %
23:00:00 few clouds 28.960 28.960 28.960 24 1.67 m/h 0 %
13-Apr-2020 (Mon)
02:00:00 light rain 27.510 27.510 27.510 28 1.73 m/h 19 %
05:00:00 light rain 26.300 26.300 26.300 31 1.97 m/h 21 %
08:00:00 overcast clouds 30.900 30.900 30.900 24 1.49 m/h 0 %
11:00:00 broken clouds 38.830 38.830 38.830 14 1.56 m/h 0 %
14:00:00 clear sky 41.700 41.700 41.700 10 2.75 m/h 0 %
17:00:00 few clouds 41.470 41.470 41.470 9 2.73 m/h 0 %
20:00:00 scattered clouds 33.730 33.730 33.730 16 1.44 m/h 0 %
23:00:00 few clouds 31.810 31.810 31.810 18 2.81 m/h 0 %
14-Apr-2020 (Tue)
02:00:00 scattered clouds 30.680 30.680 30.680 15 4.14 m/h 0 %

Famous Cities (61)